sensor_id;sensor_type;location;lat;lon;timestamp;pressure;altitude;pressure_sealevel;temperature
48003;BMP280;33768;48.578;11.574;2022-08-14T00:00:52;96238.31;;;15.58
48003;BMP280;33768;48.578;11.574;2022-08-14T00:03:56;96233.03;;;15.52
48003;BMP280;33768;48.578;11.574;2022-08-14T00:07:01;96228.91;;;15.36
48003;BMP280;33768;48.578;11.574;2022-08-14T00:10:08;96230.94;;;15.12
48003;BMP280;33768;48.578;11.574;2022-08-14T00:13:14;96234.66;;;15.00
48003;BMP280;33768;48.578;11.574;2022-08-14T00:16:20;96221.09;;;14.94
48003;BMP280;33768;48.578;11.574;2022-08-14T00:19:24;96221.81;;;15.02
48003;BMP280;33768;48.578;11.574;2022-08-14T00:22:28;96226.19;;;15.05
48003;BMP280;33768;48.578;11.574;2022-08-14T00:25:32;96223.25;;;15.10
48003;BMP280;33768;48.578;11.574;2022-08-14T00:28:37;96215.00;;;15.10
48003;BMP280;33768;48.578;11.574;2022-08-14T00:31:41;96215.53;;;15.09
48003;BMP280;33768;48.578;11.574;2022-08-14T00:34:45;96223.81;;;15.01
48003;BMP280;33768;48.578;11.574;2022-08-14T00:37:49;96202.44;;;14.93
48003;BMP280;33768;48.578;11.574;2022-08-14T00:40:53;96211.75;;;14.97
48003;BMP280;33768;48.578;11.574;2022-08-14T00:43:58;96215.78;;;14.96
48003;BMP280;33768;48.578;11.574;2022-08-14T00:47:03;96216.56;;;14.89
48003;BMP280;33768;48.578;11.574;2022-08-14T00:50:16;96198.66;;;14.81
48003;BMP280;33768;48.578;11.574;2022-08-14T00:53:22;96200.38;;;14.69
48003;BMP280;33768;48.578;11.574;2022-08-14T00:56:27;96196.41;;;14.55
48003;BMP280;33768;48.578;11.574;2022-08-14T00:59:31;96205.97;;;14.47
48003;BMP280;33768;48.578;11.574;2022-08-14T01:02:36;96199.38;;;14.42
48003;BMP280;33768;48.578;11.574;2022-08-14T01:05:41;96195.22;;;14.34
48003;BMP280;33768;48.578;11.574;2022-08-14T01:08:48;96195.03;;;14.32
48003;BMP280;33768;48.578;11.574;2022-08-14T01:11:53;96193.91;;;14.42
48003;BMP280;33768;48.578;11.574;2022-08-14T01:14:58;96201.91;;;14.55
48003;BMP280;33768;48.578;11.574;2022-08-14T01:18:03;96191.63;;;14.56
48003;BMP280;33768;48.578;11.574;2022-08-14T01:21:38;96186.72;;;14.54
48003;BMP280;33768;48.578;11.574;2022-08-14T01:24:42;96198.25;;;14.53
48003;BMP280;33768;48.578;11.574;2022-08-14T01:27:47;96195.31;;;14.51
48003;BMP280;33768;48.578;11.574;2022-08-14T01:30:52;96198.31;;;14.38
48003;BMP280;33768;48.578;11.574;2022-08-14T01:34:03;96188.88;;;14.17
48003;BMP280;33768;48.578;11.574;2022-08-14T01:37:07;96192.59;;;13.97
48003;BMP280;33768;48.578;11.574;2022-08-14T01:40:11;96191.84;;;13.89
48003;BMP280;33768;48.578;11.574;2022-08-14T01:43:15;96188.53;;;13.91
48003;BMP280;33768;48.578;11.574;2022-08-14T01:46:22;96173.88;;;13.96
48003;BMP280;33768;48.578;11.574;2022-08-14T01:49:27;96162.91;;;13.96
48003;BMP280;33768;48.578;11.574;2022-08-14T01:52:36;96160.38;;;13.90
48003;BMP280;33768;48.578;11.574;2022-08-14T01:55:40;96166.78;;;13.85
48003;BMP280;33768;48.578;11.574;2022-08-14T01:58:49;96150.69;;;13.89
48003;BMP280;33768;48.578;11.574;2022-08-14T02:01:55;96142.63;;;14.06
48003;BMP280;33768;48.578;11.574;2022-08-14T02:05:00;96140.00;;;14.15
48003;BMP280;33768;48.578;11.574;2022-08-14T02:08:06;96135.78;;;14.22
48003;BMP280;33768;48.578;11.574;2022-08-14T02:11:11;96128.09;;;14.20
48003;BMP280;33768;48.578;11.574;2022-08-14T02:14:28;96125.03;;;14.16
48003;BMP280;33768;48.578;11.574;2022-08-14T02:17:32;96130.16;;;14.12
48003;BMP280;33768;48.578;11.574;2022-08-14T02:20:36;96116.25;;;14.10
48003;BMP280;33768;48.578;11.574;2022-08-14T02:23:41;96117.56;;;13.95
48003;BMP280;33768;48.578;11.574;2022-08-14T02:26:46;96120.16;;;13.78
48003;BMP280;33768;48.578;11.574;2022-08-14T02:29:53;96120.97;;;13.64
48003;BMP280;33768;48.578;11.574;2022-08-14T02:32:59;96112.31;;;13.75
48003;BMP280;33768;48.578;11.574;2022-08-14T02:36:04;96115.94;;;13.92
48003;BMP280;33768;48.578;11.574;2022-08-14T02:39:08;96110.63;;;14.01
48003;BMP280;33768;48.578;11.574;2022-08-14T02:42:16;96111.53;;;14.04
48003;BMP280;33768;48.578;11.574;2022-08-14T02:45:20;96103.66;;;13.93
48003;BMP280;33768;48.578;11.574;2022-08-14T02:48:25;96095.47;;;13.85
48003;BMP280;33768;48.578;11.574;2022-08-14T02:51:39;96091.47;;;13.79
48003;BMP280;33768;48.578;11.574;2022-08-14T02:54:44;96088.31;;;13.90
48003;BMP280;33768;48.578;11.574;2022-08-14T02:57:49;96084.47;;;14.00
48003;BMP280;33768;48.578;11.574;2022-08-14T03:00:58;96080.06;;;14.05
48003;BMP280;33768;48.578;11.574;2022-08-14T03:04:02;96087.34;;;14.09
48003;BMP280;33768;48.578;11.574;2022-08-14T03:07:09;96077.06;;;14.17
48003;BMP280;33768;48.578;11.574;2022-08-14T03:10:13;96089.34;;;14.16
48003;BMP280;33768;48.578;11.574;2022-08-14T03:13:18;96092.09;;;14.16
48003;BMP280;33768;48.578;11.574;2022-08-14T03:16:24;96093.72;;;14.19
48003;BMP280;33768;48.578;11.574;2022-08-14T03:19:29;96092.59;;;14.22
48003;BMP280;33768;48.578;11.574;2022-08-14T03:22:33;96091.69;;;14.20
48003;BMP280;33768;48.578;11.574;2022-08-14T03:25:38;96096.34;;;14.03
48003;BMP280;33768;48.578;11.574;2022-08-14T03:28:43;96092.03;;;13.77
48003;BMP280;33768;48.578;11.574;2022-08-14T03:31:47;96082.59;;;13.56
48003;BMP280;33768;48.578;11.574;2022-08-14T03:34:54;96085.72;;;13.38
48003;BMP280;33768;48.578;11.574;2022-08-14T03:38:06;96082.28;;;13.23
48003;BMP280;33768;48.578;11.574;2022-08-14T03:41:14;96082.66;;;13.12
48003;BMP280;33768;48.578;11.574;2022-08-14T03:44:19;96073.16;;;13.06
48003;BMP280;33768;48.578;11.574;2022-08-14T03:47:23;96070.44;;;13.06
48003;BMP280;33768;48.578;11.574;2022-08-14T03:50:28;96073.50;;;13.10
48003;BMP280;33768;48.578;11.574;2022-08-14T03:53:35;96060.72;;;13.05
48003;BMP280;33768;48.578;11.574;2022-08-14T03:56:40;96064.94;;;12.98
48003;BMP280;33768;48.578;11.574;2022-08-14T03:59:48;96057.28;;;12.89
48003;BMP280;33768;48.578;11.574;2022-08-14T04:02:52;96053.81;;;12.82
48003;BMP280;33768;48.578;11.574;2022-08-14T04:05:56;96049.63;;;12.81
48003;BMP280;33768;48.578;11.574;2022-08-14T04:09:00;96041.03;;;12.84
48003;BMP280;33768;48.578;11.574;2022-08-14T04:12:04;96042.28;;;13.05
48003;BMP280;33768;48.578;11.574;2022-08-14T04:15:09;96034.41;;;13.24
48003;BMP280;33768;48.578;11.574;2022-08-14T04:18:13;96036.75;;;13.35
48003;BMP280;33768;48.578;11.574;2022-08-14T04:21:19;96034.91;;;13.44
48003;BMP280;33768;48.578;11.574;2022-08-14T04:24:25;96040.56;;;13.54
48003;BMP280;33768;48.578;11.574;2022-08-14T04:27:30;96045.28;;;13.61
48003;BMP280;33768;48.578;11.574;2022-08-14T04:30:34;96040.13;;;13.72
48003;BMP280;33768;48.578;11.574;2022-08-14T04:33:41;96040.81;;;13.80
48003;BMP280;33768;48.578;11.574;2022-08-14T04:36:47;96040.47;;;13.76
48003;BMP280;33768;48.578;11.574;2022-08-14T04:40:10;96028.69;;;13.51
48003;BMP280;33768;48.578;11.574;2022-08-14T04:43:33;96018.28;;;13.43
48003;BMP280;33768;48.578;11.574;2022-08-14T04:46:40;96014.63;;;13.40
48003;BMP280;33768;48.578;11.574;2022-08-14T04:50:05;96021.91;;;13.52
48003;BMP280;33768;48.578;11.574;2022-08-14T04:53:11;96018.56;;;13.69
48003;BMP280;33768;48.578;11.574;2022-08-14T04:56:18;96012.84;;;13.81
48003;BMP280;33768;48.578;11.574;2022-08-14T04:59:25;96011.50;;;13.97
48003;BMP280;33768;48.578;11.574;2022-08-14T05:02:29;96007.47;;;13.98
48003;BMP280;33768;48.578;11.574;2022-08-14T05:05:33;96017.06;;;14.21
48003;BMP280;33768;48.578;11.574;2022-08-14T05:08:38;96011.53;;;14.53
48003;BMP280;33768;48.578;11.574;2022-08-14T05:11:43;96014.47;;;14.71
48003;BMP280;33768;48.578;11.574;2022-08-14T05:14:47;96009.63;;;14.87
48003;BMP280;33768;48.578;11.574;2022-08-14T05:17:51;96011.81;;;15.05
48003;BMP280;33768;48.578;11.574;2022-08-14T05:20:58;96015.97;;;15.13
48003;BMP280;33768;48.578;11.574;2022-08-14T05:24:03;96012.81;;;15.17
48003;BMP280;33768;48.578;11.574;2022-08-14T05:27:07;96015.00;;;15.18
48003;BMP280;33768;48.578;11.574;2022-08-14T05:30:12;96008.78;;;15.18
48003;BMP280;33768;48.578;11.574;2022-08-14T05:33:18;96013.56;;;15.17
48003;BMP280;33768;48.578;11.574;2022-08-14T05:36:23;96011.22;;;15.31
48003;BMP280;33768;48.578;11.574;2022-08-14T05:39:29;96024.31;;;15.39
48003;BMP280;33768;48.578;11.574;2022-08-14T05:42:33;96023.03;;;15.24
48003;BMP280;33768;48.578;11.574;2022-08-14T05:45:38;96035.78;;;15.29
48003;BMP280;33768;48.578;11.574;2022-08-14T05:48:48;96026.59;;;15.50
48003;BMP280;33768;48.578;11.574;2022-08-14T05:51:53;96016.63;;;15.71
48003;BMP280;33768;48.578;11.574;2022-08-14T05:54:57;96033.69;;;15.87
48003;BMP280;33768;48.578;11.574;2022-08-14T05:58:04;96039.97;;;15.96
48003;BMP280;33768;48.578;11.574;2022-08-14T06:01:08;96035.44;;;16.08
48003;BMP280;33768;48.578;11.574;2022-08-14T06:04:12;96038.66;;;16.31
48003;BMP280;33768;48.578;11.574;2022-08-14T06:07:17;96046.16;;;16.57
48003;BMP280;33768;48.578;11.574;2022-08-14T06:10:21;96047.88;;;16.78
48003;BMP280;33768;48.578;11.574;2022-08-14T06:13:25;96053.28;;;16.95
48003;BMP280;33768;48.578;11.574;2022-08-14T06:16:29;96051.38;;;16.88
48003;BMP280;33768;48.578;11.574;2022-08-14T06:19:33;96056.50;;;17.01
48003;BMP280;33768;48.578;11.574;2022-08-14T06:22:39;96044.22;;;17.11
48003;BMP280;33768;48.578;11.574;2022-08-14T06:25:43;96044.25;;;17.21
48003;BMP280;33768;48.578;11.574;2022-08-14T06:28:49;96044.56;;;17.24
48003;BMP280;33768;48.578;11.574;2022-08-14T06:31:53;96042.53;;;17.34
48003;BMP280;33768;48.578;11.574;2022-08-14T06:34:58;96041.69;;;17.41
48003;BMP280;33768;48.578;11.574;2022-08-14T06:38:02;96041.09;;;17.52
48003;BMP280;33768;48.578;11.574;2022-08-14T06:41:06;96035.59;;;17.61
48003;BMP280;33768;48.578;11.574;2022-08-14T06:44:10;96043.31;;;17.72
48003;BMP280;33768;48.578;11.574;2022-08-14T06:47:14;96038.94;;;17.79
48003;BMP280;33768;48.578;11.574;2022-08-14T06:50:20;96046.78;;;17.91
48003;BMP280;33768;48.578;11.574;2022-08-14T06:53:24;96041.41;;;18.03
48003;BMP280;33768;48.578;11.574;2022-08-14T06:56:28;96044.47;;;18.16
48003;BMP280;33768;48.578;11.574;2022-08-14T06:59:32;96047.06;;;18.33
48003;BMP280;33768;48.578;11.574;2022-08-14T07:02:37;96055.28;;;18.51
48003;BMP280;33768;48.578;11.574;2022-08-14T07:05:59;96053.91;;;18.71
48003;BMP280;33768;48.578;11.574;2022-08-14T07:09:04;96058.53;;;18.87
48003;BMP280;33768;48.578;11.574;2022-08-14T07:12:09;96051.03;;;19.09
48003;BMP280;33768;48.578;11.574;2022-08-14T07:15:13;96052.63;;;19.32
48003;BMP280;33768;48.578;11.574;2022-08-14T07:18:22;96042.31;;;19.53
48003;BMP280;33768;48.578;11.574;2022-08-14T07:21:26;96049.28;;;19.75
48003;BMP280;33768;48.578;11.574;2022-08-14T07:24:31;96046.41;;;19.94
48003;BMP280;33768;48.578;11.574;2022-08-14T07:27:35;96034.81;;;20.18
48003;BMP280;33768;48.578;11.574;2022-08-14T07:30:42;96030.91;;;20.43
48003;BMP280;33768;48.578;11.574;2022-08-14T07:33:47;96019.44;;;20.70
48003;BMP280;33768;48.578;11.574;2022-08-14T07:36:53;96011.97;;;20.95
48003;BMP280;33768;48.578;11.574;2022-08-14T07:39:58;96015.31;;;21.27
48003;BMP280;33768;48.578;11.574;2022-08-14T07:43:02;95988.00;;;21.58
48003;BMP280;33768;48.578;11.574;2022-08-14T07:46:06;95981.75;;;21.82
48003;BMP280;33768;48.578;11.574;2022-08-14T07:49:10;95980.22;;;22.03
48003;BMP280;33768;48.578;11.574;2022-08-14T07:52:14;95966.97;;;22.27
48003;BMP280;33768;48.578;11.574;2022-08-14T07:55:18;95948.47;;;22.44
48003;BMP280;33768;48.578;11.574;2022-08-14T07:58:22;95950.78;;;22.61
48003;BMP280;33768;48.578;11.574;2022-08-14T08:01:27;95959.69;;;22.84
48003;BMP280;33768;48.578;11.574;2022-08-14T08:04:34;95951.84;;;23.21
48003;BMP280;33768;48.578;11.574;2022-08-14T08:07:47;95954.66;;;23.76
48003;BMP280;33768;48.578;11.574;2022-08-14T08:10:55;95946.31;;;24.33
48003;BMP280;33768;48.578;11.574;2022-08-14T08:14:02;95948.25;;;24.89
48003;BMP280;33768;48.578;11.574;2022-08-14T08:17:07;95928.22;;;25.43
48003;BMP280;33768;48.578;11.574;2022-08-14T08:20:18;95934.44;;;26.23
48003;BMP280;33768;48.578;11.574;2022-08-14T08:23:25;95936.50;;;26.96
48003;BMP280;33768;48.578;11.574;2022-08-14T08:32:21;95940.75;;;28.39
48003;BMP280;33768;48.578;11.574;2022-08-14T08:36:59;95929.63;;;29.37
48003;BMP280;33768;48.578;11.574;2022-08-14T08:44:57;95926.94;;;29.95
48003;BMP280;33768;48.578;11.574;2022-08-14T08:48:02;95922.78;;;30.25
48003;BMP280;33768;48.578;11.574;2022-08-14T08:51:07;95916.94;;;31.11
48003;BMP280;33768;48.578;11.574;2022-08-14T08:54:14;95910.53;;;31.41
48003;BMP280;33768;48.578;11.574;2022-08-14T08:57:18;95900.03;;;31.84
48003;BMP280;33768;48.578;11.574;2022-08-14T09:00:23;95913.66;;;32.41
48003;BMP280;33768;48.578;11.574;2022-08-14T09:03:29;95906.53;;;32.36
48003;BMP280;33768;48.578;11.574;2022-08-14T09:06:45;95908.22;;;32.10
48003;BMP280;33768;48.578;11.574;2022-08-14T09:09:52;95893.69;;;32.27
48003;BMP280;33768;48.578;11.574;2022-08-14T09:12:59;95891.53;;;32.72
48003;BMP280;33768;48.578;11.574;2022-08-14T09:16:04;95891.09;;;32.91
48003;BMP280;33768;48.578;11.574;2022-08-14T09:19:09;95899.38;;;33.32
48003;BMP280;33768;48.578;11.574;2022-08-14T09:22:14;95899.56;;;33.48
48003;BMP280;33768;48.578;11.574;2022-08-14T09:25:19;95889.22;;;33.74
48003;BMP280;33768;48.578;11.574;2022-08-14T09:28:23;95871.16;;;34.12
48003;BMP280;33768;48.578;11.574;2022-08-14T09:31:28;95868.31;;;34.14
48003;BMP280;33768;48.578;11.574;2022-08-14T09:35:02;95866.03;;;33.91
48003;BMP280;33768;48.578;11.574;2022-08-14T09:45:30;95881.19;;;34.23
48003;BMP280;33768;48.578;11.574;2022-08-14T09:48:37;95878.91;;;34.08
48003;BMP280;33768;48.578;11.574;2022-08-14T09:51:42;95868.25;;;34.04
48003;BMP280;33768;48.578;11.574;2022-08-14T09:54:47;95862.22;;;34.45
48003;BMP280;33768;48.578;11.574;2022-08-14T09:57:52;95859.34;;;34.41
48003;BMP280;33768;48.578;11.574;2022-08-14T10:00:56;95855.28;;;34.70
48003;BMP280;33768;48.578;11.574;2022-08-14T10:04:06;95852.50;;;34.84
48003;BMP280;33768;48.578;11.574;2022-08-14T10:07:28;95859.53;;;34.69
48003;BMP280;33768;48.578;11.574;2022-08-14T10:10:37;95859.41;;;34.53
48003;BMP280;33768;48.578;11.574;2022-08-14T10:13:41;95852.56;;;35.00
48003;BMP280;33768;48.578;11.574;2022-08-14T10:16:51;95849.88;;;35.31
48003;BMP280;33768;48.578;11.574;2022-08-14T10:19:57;95845.69;;;35.93
48003;BMP280;33768;48.578;11.574;2022-08-14T10:23:11;95831.50;;;36.34
48003;BMP280;33768;48.578;11.574;2022-08-14T10:26:18;95835.09;;;36.11
48003;BMP280;33768;48.578;11.574;2022-08-14T10:29:41;95829.41;;;36.07
48003;BMP280;33768;48.578;11.574;2022-08-14T10:32:46;95818.72;;;36.06
48003;BMP280;33768;48.578;11.574;2022-08-14T10:35:51;95822.28;;;35.91
48003;BMP280;33768;48.578;11.574;2022-08-14T10:38:57;95815.88;;;35.61
48003;BMP280;33768;48.578;11.574;2022-08-14T10:42:06;95818.03;;;35.86
48003;BMP280;33768;48.578;11.574;2022-08-14T10:45:28;95814.47;;;36.05
48003;BMP280;33768;48.578;11.574;2022-08-14T10:48:32;95813.00;;;36.41
48003;BMP280;33768;48.578;11.574;2022-08-14T10:51:36;95802.34;;;36.60
48003;BMP280;33768;48.578;11.574;2022-08-14T10:54:42;95802.19;;;36.95
48003;BMP280;33768;48.578;11.574;2022-08-14T10:57:51;95804.28;;;37.04
48003;BMP280;33768;48.578;11.574;2022-08-14T11:00:58;95800.63;;;37.25
48003;BMP280;33768;48.578;11.574;2022-08-14T11:04:03;95801.50;;;36.87
48003;BMP280;33768;48.578;11.574;2022-08-14T11:07:13;95806.59;;;36.57
48003;BMP280;33768;48.578;11.574;2022-08-14T11:10:17;95798.78;;;36.59
48003;BMP280;33768;48.578;11.574;2022-08-14T11:13:23;95796.59;;;36.73
48003;BMP280;33768;48.578;11.574;2022-08-14T11:16:28;95778.06;;;36.84
48003;BMP280;33768;48.578;11.574;2022-08-14T11:19:34;95778.97;;;36.22
48003;BMP280;33768;48.578;11.574;2022-08-14T11:22:40;95786.81;;;35.68
48003;BMP280;33768;48.578;11.574;2022-08-14T11:25:46;95764.13;;;35.70
48003;BMP280;33768;48.578;11.574;2022-08-14T11:28:50;95764.75;;;36.24
48003;BMP280;33768;48.578;11.574;2022-08-14T11:31:58;95757.44;;;36.90
48003;BMP280;33768;48.578;11.574;2022-08-14T11:35:02;95760.91;;;37.06
48003;BMP280;33768;48.578;11.574;2022-08-14T11:38:07;95753.59;;;37.38
48003;BMP280;33768;48.578;11.574;2022-08-14T11:41:13;95753.34;;;36.43
48003;BMP280;33768;48.578;11.574;2022-08-14T11:44:18;95751.34;;;35.87
48003;BMP280;33768;48.578;11.574;2022-08-14T11:47:23;95741.34;;;36.13
48003;BMP280;33768;48.578;11.574;2022-08-14T11:50:30;95739.94;;;36.16
48003;BMP280;33768;48.578;11.574;2022-08-14T11:53:35;95736.38;;;36.16
48003;BMP280;33768;48.578;11.574;2022-08-14T11:56:39;95723.63;;;35.97
48003;BMP280;33768;48.578;11.574;2022-08-14T11:59:44;95700.84;;;36.34
48003;BMP280;33768;48.578;11.574;2022-08-14T12:02:56;95705.16;;;36.00
48003;BMP280;33768;48.578;11.574;2022-08-14T12:06:11;95705.16;;;36.06
48003;BMP280;33768;48.578;11.574;2022-08-14T12:09:34;95699.25;;;36.73
48003;BMP280;33768;48.578;11.574;2022-08-14T12:12:39;95696.28;;;36.96
48003;BMP280;33768;48.578;11.574;2022-08-14T12:15:46;95696.28;;;36.92
48003;BMP280;33768;48.578;11.574;2022-08-14T12:18:56;95694.31;;;36.69
48003;BMP280;33768;48.578;11.574;2022-08-14T12:22:01;95700.66;;;36.78
48003;BMP280;33768;48.578;11.574;2022-08-14T12:25:11;95692.25;;;36.54
48003;BMP280;33768;48.578;11.574;2022-08-14T12:28:15;95674.00;;;37.30
48003;BMP280;33768;48.578;11.574;2022-08-14T12:31:19;95674.72;;;37.29
48003;BMP280;33768;48.578;11.574;2022-08-14T12:34:30;95675.03;;;36.84
48003;BMP280;33768;48.578;11.574;2022-08-14T12:37:35;95662.16;;;36.96
48003;BMP280;33768;48.578;11.574;2022-08-14T12:40:51;95661.66;;;36.62
48003;BMP280;33768;48.578;11.574;2022-08-14T12:44:03;95668.47;;;37.07
48003;BMP280;33768;48.578;11.574;2022-08-14T12:47:13;95659.56;;;37.56
48003;BMP280;33768;48.578;11.574;2022-08-14T12:50:20;95653.34;;;37.32
48003;BMP280;33768;48.578;11.574;2022-08-14T12:53:34;95649.81;;;37.31
48003;BMP280;33768;48.578;11.574;2022-08-14T12:56:40;95646.72;;;37.63
48003;BMP280;33768;48.578;11.574;2022-08-14T12:59:44;95649.09;;;37.33
48003;BMP280;33768;48.578;11.574;2022-08-14T13:02:53;95636.94;;;37.38
48003;BMP280;33768;48.578;11.574;2022-08-14T13:05:57;95639.56;;;37.66
48003;BMP280;33768;48.578;11.574;2022-08-14T13:09:03;95627.25;;;37.85
48003;BMP280;33768;48.578;11.574;2022-08-14T13:12:07;95618.06;;;37.79
48003;BMP280;33768;48.578;11.574;2022-08-14T13:15:13;95620.19;;;37.80
48003;BMP280;33768;48.578;11.574;2022-08-14T13:18:20;95615.63;;;37.37
48003;BMP280;33768;48.578;11.574;2022-08-14T13:21:25;95621.00;;;36.86
48003;BMP280;33768;48.578;11.574;2022-08-14T13:24:30;95621.84;;;36.66
48003;BMP280;33768;48.578;11.574;2022-08-14T13:27:34;95609.69;;;36.76
48003;BMP280;33768;48.578;11.574;2022-08-14T13:30:41;95607.47;;;36.88
48003;BMP280;33768;48.578;11.574;2022-08-14T13:33:48;95599.09;;;36.70
48003;BMP280;33768;48.578;11.574;2022-08-14T13:36:53;95592.91;;;36.34
48003;BMP280;33768;48.578;11.574;2022-08-14T13:40:00;95580.13;;;36.29
48003;BMP280;33768;48.578;11.574;2022-08-14T13:43:05;95582.41;;;35.99
48003;BMP280;33768;48.578;11.574;2022-08-14T13:46:11;95572.59;;;35.65
48003;BMP280;33768;48.578;11.574;2022-08-14T13:49:15;95590.31;;;35.67
48003;BMP280;33768;48.578;11.574;2022-08-14T13:52:21;95581.09;;;35.67
48003;BMP280;33768;48.578;11.574;2022-08-14T13:55:28;95579.63;;;35.82
48003;BMP280;33768;48.578;11.574;2022-08-14T13:58:33;95571.00;;;36.05
48003;BMP280;33768;48.578;11.574;2022-08-14T14:01:39;95565.97;;;36.24
48003;BMP280;33768;48.578;11.574;2022-08-14T14:04:49;95563.97;;;35.95
48003;BMP280;33768;48.578;11.574;2022-08-14T14:07:54;95570.44;;;35.69
48003;BMP280;33768;48.578;11.574;2022-08-14T14:10:58;95558.28;;;35.91
48003;BMP280;33768;48.578;11.574;2022-08-14T14:14:03;95554.72;;;36.00
48003;BMP280;33768;48.578;11.574;2022-08-14T14:17:09;95550.53;;;35.81
48003;BMP280;33768;48.578;11.574;2022-08-14T14:20:18;95553.50;;;35.32
48003;BMP280;33768;48.578;11.574;2022-08-14T14:23:22;95553.53;;;35.22
48003;BMP280;33768;48.578;11.574;2022-08-14T14:26:28;95564.88;;;34.97
48003;BMP280;33768;48.578;11.574;2022-08-14T14:29:34;95547.88;;;34.77
48003;BMP280;33768;48.578;11.574;2022-08-14T14:32:41;95545.69;;;34.62
48003;BMP280;33768;48.578;11.574;2022-08-14T14:35:47;95538.66;;;34.76
48003;BMP280;33768;48.578;11.574;2022-08-14T14:38:57;95524.50;;;34.80
48003;BMP280;33768;48.578;11.574;2022-08-14T14:42:03;95529.41;;;35.29
48003;BMP280;33768;48.578;11.574;2022-08-14T14:45:12;95536.50;;;35.12
48003;BMP280;33768;48.578;11.574;2022-08-14T14:48:17;95528.72;;;34.48
48003;BMP280;33768;48.578;11.574;2022-08-14T14:51:22;95538.50;;;34.09
48003;BMP280;33768;48.578;11.574;2022-08-14T14:54:26;95546.91;;;33.78
48003;BMP280;33768;48.578;11.574;2022-08-14T14:57:32;95534.84;;;33.70
48003;BMP280;33768;48.578;11.574;2022-08-14T15:00:36;95536.94;;;33.65
48003;BMP280;33768;48.578;11.574;2022-08-14T15:03:40;95529.13;;;33.62
48003;BMP280;33768;48.578;11.574;2022-08-14T15:06:47;95534.22;;;33.89
48003;BMP280;33768;48.578;11.574;2022-08-14T15:09:51;95520.13;;;34.14
48003;BMP280;33768;48.578;11.574;2022-08-14T15:12:55;95522.94;;;34.01
48003;BMP280;33768;48.578;11.574;2022-08-14T15:15:59;95529.84;;;33.60
48003;BMP280;33768;48.578;11.574;2022-08-14T15:19:03;95521.22;;;33.31
48003;BMP280;33768;48.578;11.574;2022-08-14T15:22:08;95511.41;;;33.47
48003;BMP280;33768;48.578;11.574;2022-08-14T15:25:11;95508.50;;;33.30
48003;BMP280;33768;48.578;11.574;2022-08-14T15:28:17;95514.56;;;32.91
48003;BMP280;33768;48.578;11.574;2022-08-14T15:31:21;95515.81;;;32.66
48003;BMP280;33768;48.578;11.574;2022-08-14T15:34:25;95510.72;;;32.51
48003;BMP280;33768;48.578;11.574;2022-08-14T15:37:31;95515.72;;;32.58
48003;BMP280;33768;48.578;11.574;2022-08-14T15:40:39;95507.78;;;32.37
48003;BMP280;33768;48.578;11.574;2022-08-14T15:43:44;95504.81;;;32.23
48003;BMP280;33768;48.578;11.574;2022-08-14T15:46:48;95507.91;;;31.82
48003;BMP280;33768;48.578;11.574;2022-08-14T15:49:52;95507.75;;;31.71
48003;BMP280;33768;48.578;11.574;2022-08-14T15:52:57;95499.19;;;31.61
48003;BMP280;33768;48.578;11.574;2022-08-14T15:56:01;95504.25;;;31.17
48003;BMP280;33768;48.578;11.574;2022-08-14T15:59:08;95508.06;;;30.87
48003;BMP280;33768;48.578;11.574;2022-08-14T16:02:12;95508.47;;;30.70
48003;BMP280;33768;48.578;11.574;2022-08-14T16:05:16;95501.97;;;30.59
48003;BMP280;33768;48.578;11.574;2022-08-14T16:08:25;95488.31;;;30.42
48003;BMP280;33768;48.578;11.574;2022-08-14T16:11:30;95493.25;;;30.42
48003;BMP280;33768;48.578;11.574;2022-08-14T16:14:34;95495.84;;;30.30
48003;BMP280;33768;48.578;11.574;2022-08-14T16:17:40;95494.31;;;30.23
48003;BMP280;33768;48.578;11.574;2022-08-14T16:20:46;95487.13;;;30.16
48003;BMP280;33768;48.578;11.574;2022-08-14T16:23:50;95481.31;;;30.04
48003;BMP280;33768;48.578;11.574;2022-08-14T16:26:56;95478.03;;;29.79
48003;BMP280;33768;48.578;11.574;2022-08-14T16:30:00;95474.75;;;29.55
48003;BMP280;33768;48.578;11.574;2022-08-14T16:33:04;95465.25;;;29.37
48003;BMP280;33768;48.578;11.574;2022-08-14T16:36:13;95475.66;;;29.30
48003;BMP280;33768;48.578;11.574;2022-08-14T16:39:22;95464.13;;;29.17
48003;BMP280;33768;48.578;11.574;2022-08-14T16:42:28;95473.09;;;29.09
48003;BMP280;33768;48.578;11.574;2022-08-14T16:45:36;95465.84;;;29.00
48003;BMP280;33768;48.578;11.574;2022-08-14T16:48:43;95470.47;;;28.86
48003;BMP280;33768;48.578;11.574;2022-08-14T16:51:48;95467.34;;;28.72
48003;BMP280;33768;48.578;11.574;2022-08-14T16:54:52;95464.19;;;28.57
48003;BMP280;33768;48.578;11.574;2022-08-14T16:57:56;95470.16;;;28.43
48003;BMP280;33768;48.578;11.574;2022-08-14T17:01:22;95473.38;;;28.32
48003;BMP280;33768;48.578;11.574;2022-08-14T17:04:27;95467.59;;;28.24
48003;BMP280;33768;48.578;11.574;2022-08-14T17:07:32;95466.59;;;28.12
48003;BMP280;33768;48.578;11.574;2022-08-14T17:13:46;95467.34;;;27.87
48003;BMP280;33768;48.578;11.574;2022-08-14T17:16:56;95465.56;;;27.72
48003;BMP280;33768;48.578;11.574;2022-08-14T17:20:07;95472.16;;;27.58
48003;BMP280;33768;48.578;11.574;2022-08-14T17:23:11;95468.25;;;27.43
48003;BMP280;33768;48.578;11.574;2022-08-14T17:26:45;95478.28;;;27.27
48003;BMP280;33768;48.578;11.574;2022-08-14T17:29:52;95482.72;;;27.11
48003;BMP280;33768;48.578;11.574;2022-08-14T17:32:57;95478.06;;;26.96
48003;BMP280;33768;48.578;11.574;2022-08-14T17:36:12;95476.06;;;26.75
48003;BMP280;33768;48.578;11.574;2022-08-14T17:39:18;95480.38;;;26.57
48003;BMP280;33768;48.578;11.574;2022-08-14T17:45:52;95489.06;;;26.23
48003;BMP280;33768;48.578;11.574;2022-08-14T17:49:09;95485.06;;;26.08
48003;BMP280;33768;48.578;11.574;2022-08-14T17:52:15;95485.97;;;25.94
48003;BMP280;33768;48.578;11.574;2022-08-14T17:55:21;95489.59;;;25.77
48003;BMP280;33768;48.578;11.574;2022-08-14T17:58:26;95487.63;;;25.60
48003;BMP280;33768;48.578;11.574;2022-08-14T18:01:34;95491.31;;;25.47
48003;BMP280;33768;48.578;11.574;2022-08-14T18:04:41;95491.47;;;25.32